createdAt,value
2022-10-15T00:01:01.961Z,23.31
2022-10-15T00:03:06.361Z,23.31
2022-10-15T00:05:10.692Z,23.31
2022-10-15T00:07:14.928Z,23.31
2022-10-15T00:09:19.201Z,23.3
2022-10-15T00:11:23.459Z,23.29
2022-10-15T00:13:27.736Z,23.28
2022-10-15T00:15:31.983Z,23.27
2022-10-15T00:17:36.261Z,23.29
2022-10-15T00:19:40.579Z,23.29
2022-10-15T00:21:44.842Z,23.29
2022-10-15T00:23:49.133Z,23.29
2022-10-15T00:25:53.419Z,23.28
2022-10-15T00:27:57.673Z,23.27
2022-10-15T00:30:01.936Z,23.26
2022-10-15T00:32:06.222Z,23.25
2022-10-15T00:34:10.532Z,23.24
2022-10-15T00:36:14.805Z,23.23
2022-10-15T00:38:19.071Z,23.23
2022-10-15T00:40:23.360Z,23.23
2022-10-15T00:42:27.643Z,23.23
2022-10-15T00:44:31.879Z,23.22
2022-10-15T00:46:36.151Z,23.23
2022-10-15T00:48:40.397Z,23.23
2022-10-15T00:50:44.672Z,23.23
2022-10-15T00:52:48.966Z,23.24
2022-10-15T00:54:53.278Z,23.24
2022-10-15T00:56:57.602Z,23.24
2022-10-15T00:59:02.007Z,23.22
2022-10-15T01:01:06.372Z,23.21
2022-10-15T01:03:10.872Z,23.21
2022-10-15T01:05:15.416Z,23.2
2022-10-15T01:07:19.680Z,23.21
2022-10-15T01:09:23.958Z,23.19
2022-10-15T01:11:28.245Z,23.18
2022-10-15T01:13:32.515Z,23.18
2022-10-15T01:15:36.791Z,23.18
2022-10-15T01:17:41.054Z,23.18
2022-10-15T01:19:45.409Z,23.18
2022-10-15T01:21:49.668Z,23.17
2022-10-15T01:23:53.910Z,23.17
2022-10-15T01:25:58.230Z,23.16
2022-10-15T01:28:02.497Z,23.16
2022-10-15T01:30:06.774Z,23.16
2022-10-15T01:32:11.093Z,23.16
2022-10-15T01:36:24.078Z,23.15
2022-10-15T01:38:28.343Z,23.13
2022-10-15T01:40:32.604Z,23.13
2022-10-15T01:42:36.891Z,23.12
2022-10-15T01:44:41.149Z,23.09
2022-10-15T01:46:45.413Z,23.09
2022-10-15T01:48:49.689Z,23.09
2022-10-15T01:50:53.932Z,23.08
2022-10-15T01:52:58.243Z,23.08
2022-10-15T01:55:02.508Z,23.08
2022-10-15T01:57:06.786Z,23.07
2022-10-15T01:59:11.059Z,23.07
2022-10-15T02:01:15.423Z,23.06
2022-10-15T02:03:20.112Z,23.05
2022-10-15T02:05:24.345Z,23.06
2022-10-15T02:07:28.580Z,23.05
2022-10-15T02:09:32.878Z,23.06
2022-10-15T02:11:37.180Z,23.04
2022-10-15T02:13:41.513Z,23.01
2022-10-15T02:15:45.764Z,23
2022-10-15T02:17:50.016Z,22.99
2022-10-15T02:19:54.320Z,23
2022-10-15T02:21:58.827Z,22.98
2022-10-15T02:24:03.119Z,22.98
2022-10-15T02:26:07.405Z,22.99
2022-10-15T02:28:11.689Z,22.98
2022-10-15T02:30:16.243Z,22.98
2022-10-15T02:32:20.631Z,22.98
2022-10-15T02:34:26.267Z,22.95
2022-10-15T02:36:30.539Z,22.95
2022-10-15T02:38:34.802Z,22.95
2022-10-15T02:40:39.090Z,22.93
2022-10-15T02:42:43.353Z,22.91
2022-10-15T02:44:47.632Z,22.9
2022-10-15T02:46:51.949Z,22.88
2022-10-15T02:48:56.218Z,22.85
2022-10-15T02:51:00.510Z,22.85
2022-10-15T02:53:04.756Z,22.82
2022-10-15T02:55:09.034Z,22.81
2022-10-15T02:57:13.362Z,22.81
2022-10-15T02:59:17.925Z,22.81
2022-10-15T03:01:22.274Z,22.79
2022-10-15T03:03:26.771Z,22.77
2022-10-15T03:05:31.683Z,22.77
2022-10-15T03:07:35.931Z,22.75
2022-10-15T03:09:40.221Z,22.75
2022-10-15T03:11:44.497Z,22.74
2022-10-15T03:13:48.793Z,22.75
2022-10-15T03:15:53.067Z,22.72
2022-10-15T03:17:57.408Z,22.73
2022-10-15T03:20:01.691Z,22.72
2022-10-15T03:22:06.002Z,22.7
2022-10-15T03:24:10.305Z,22.69
2022-10-15T03:26:14.567Z,22.68
2022-10-15T03:28:18.895Z,22.67
2022-10-15T03:30:23.349Z,22.66
2022-10-15T03:32:27.690Z,22.65
2022-10-15T03:34:38.805Z,22.65
2022-10-15T03:36:43.040Z,22.65
2022-10-15T03:38:47.317Z,22.63
2022-10-15T03:40:51.619Z,22.64
2022-10-15T03:42:55.886Z,22.66
2022-10-15T03:45:00.125Z,22.65
2022-10-15T03:47:04.409Z,22.65
2022-10-15T03:49:08.674Z,22.65
2022-10-15T03:51:14.621Z,22.65
2022-10-15T03:53:30.342Z,22.63
2022-10-15T03:55:34.588Z,22.62
2022-10-15T03:57:38.871Z,22.6
2022-10-15T04:01:47.361Z,22.59
2022-10-15T04:03:51.655Z,22.59
2022-10-15T04:05:56.035Z,22.59
2022-10-15T04:08:05.888Z,22.58
2022-10-15T04:10:10.131Z,22.58
2022-10-15T04:12:14.402Z,22.6
2022-10-15T04:14:18.679Z,22.6
2022-10-15T04:16:22.981Z,22.57
2022-10-15T04:18:27.263Z,22.58
2022-10-15T04:20:31.519Z,22.57
2022-10-15T04:22:35.792Z,22.55
2022-10-15T04:24:40.042Z,22.54
2022-10-15T04:26:44.349Z,22.54
2022-10-15T04:28:48.700Z,22.54
2022-10-15T04:30:53.124Z,22.54
2022-10-15T04:32:57.363Z,22.53
2022-10-15T04:35:01.678Z,22.52
2022-10-15T04:37:05.968Z,22.5
2022-10-15T04:39:10.973Z,22.48
2022-10-15T04:41:18.253Z,22.46
2022-10-15T04:43:22.574Z,22.45
2022-10-15T04:45:26.814Z,22.44
2022-10-15T04:47:31.082Z,22.44
2022-10-15T04:49:35.310Z,22.43
2022-10-15T04:51:39.702Z,22.43
2022-10-15T04:53:43.960Z,22.41
2022-10-15T04:55:48.211Z,22.41
2022-10-15T04:57:52.489Z,22.4
2022-10-15T04:59:57.614Z,22.4
2022-10-15T05:02:02.481Z,22.41
2022-10-15T05:04:06.994Z,22.39
2022-10-15T05:06:11.278Z,22.4
2022-10-15T05:08:15.578Z,22.4
2022-10-15T05:10:19.839Z,22.39
2022-10-15T05:12:24.153Z,22.38
2022-10-15T05:14:28.426Z,22.38
2022-10-15T05:16:32.730Z,22.37
2022-10-15T05:18:37.059Z,22.37
2022-10-15T05:20:41.329Z,22.36
2022-10-15T05:22:45.627Z,22.35
2022-10-15T05:24:49.891Z,22.34
2022-10-15T05:26:54.199Z,22.32
2022-10-15T05:28:58.538Z,22.31
2022-10-15T05:31:03.110Z,22.3
2022-10-15T05:33:07.401Z,22.3
2022-10-15T05:35:11.672Z,22.31
2022-10-15T05:37:15.955Z,22.32
2022-10-15T05:39:20.271Z,22.33
2022-10-15T05:41:24.541Z,22.32
2022-10-15T05:43:28.892Z,22.29
2022-10-15T05:45:33.222Z,22.27
2022-10-15T05:47:37.485Z,22.27
2022-10-15T05:49:41.878Z,22.25
2022-10-15T05:51:46.178Z,22.25
2022-10-15T05:53:50.615Z,22.25
2022-10-15T05:55:54.950Z,22.24
2022-10-15T05:57:59.204Z,22.23
2022-10-15T06:00:03.509Z,22.23
2022-10-15T06:02:07.916Z,22.22
2022-10-15T06:04:12.565Z,22.22
2022-10-15T06:06:16.826Z,22.21
2022-10-15T06:08:21.247Z,22.22
2022-10-15T06:10:25.512Z,22.21
2022-10-15T06:12:29.815Z,22.2
2022-10-15T06:14:34.151Z,22.19
2022-10-15T06:16:38.453Z,22.19
2022-10-15T06:18:42.773Z,22.18
2022-10-15T06:20:47.110Z,22.19
2022-10-15T06:22:51.415Z,22.18
2022-10-15T06:24:55.700Z,22.18
2022-10-15T06:26:59.976Z,22.18
2022-10-15T06:29:04.349Z,22.16
2022-10-15T06:31:08.683Z,22.16
2022-10-15T06:33:13.025Z,22.17
2022-10-15T06:35:17.461Z,22.21
2022-10-15T06:37:22.109Z,22.23
2022-10-15T06:39:27.551Z,22.24
2022-10-15T06:41:31.817Z,22.24
2022-10-15T06:43:36.093Z,22.24
2022-10-15T06:45:40.389Z,22.21
2022-10-15T06:47:44.667Z,22.2
2022-10-15T06:49:48.938Z,22.2
2022-10-15T06:51:53.211Z,22.24
2022-10-15T06:54:03.292Z,22.3
2022-10-15T06:56:07.573Z,22.37
2022-10-15T06:58:11.880Z,22.44
2022-10-15T07:00:16.171Z,22.5
2022-10-15T07:02:20.621Z,22.56
2022-10-15T07:04:25.869Z,22.61
2022-10-15T07:06:30.129Z,22.65
2022-10-15T07:08:34.384Z,22.68
2022-10-15T07:10:38.715Z,22.71
2022-10-15T07:12:42.979Z,22.74
2022-10-15T07:14:47.253Z,22.77
2022-10-15T07:16:51.517Z,22.79
2022-10-15T07:18:55.824Z,22.82
2022-10-15T07:21:00.221Z,22.84
2022-10-15T07:23:04.746Z,22.86
2022-10-15T07:25:09.011Z,22.87
2022-10-15T07:27:20.347Z,22.87
2022-10-15T07:29:24.663Z,22.87
2022-10-15T07:31:28.989Z,22.88
2022-10-15T07:33:33.541Z,22.91
2022-10-15T07:35:37.870Z,22.93
2022-10-15T07:37:42.161Z,22.94
2022-10-15T07:39:46.425Z,22.95
2022-10-15T07:41:50.711Z,22.96
2022-10-15T07:43:55.000Z,22.98
2022-10-15T07:46:00.488Z,22.99
2022-10-15T07:48:04.790Z,23.01
2022-10-15T07:50:09.049Z,23.02
2022-10-15T07:52:13.347Z,23.03
2022-10-15T07:54:17.644Z,23.05
2022-10-15T07:56:21.945Z,23.06
2022-10-15T07:58:26.211Z,23.07
2022-10-15T08:00:30.576Z,23.08
2022-10-15T08:02:37.983Z,23.1
2022-10-15T08:04:42.250Z,23.12
2022-10-15T08:06:46.710Z,23.12
2022-10-15T08:08:50.979Z,23.15
2022-10-15T08:10:55.281Z,23.16
2022-10-15T08:12:59.565Z,23.17
2022-10-15T08:15:03.909Z,23.17
2022-10-15T08:17:08.197Z,23.19
2022-10-15T08:19:12.608Z,23.2
2022-10-15T08:21:17.086Z,23.2
2022-10-15T08:23:21.339Z,23.2
2022-10-15T08:25:25.609Z,23.2
2022-10-15T08:27:29.922Z,23.2
2022-10-15T08:29:34.208Z,23.2
2022-10-15T08:31:38.654Z,23.2
2022-10-15T08:33:42.900Z,23.2
2022-10-15T08:35:47.158Z,23.21
2022-10-15T08:37:51.469Z,23.22
2022-10-15T08:39:55.763Z,23.22
2022-10-15T08:42:00.092Z,23.25
2022-10-15T08:44:04.368Z,23.26
2022-10-15T08:46:08.628Z,23.29
2022-10-15T08:48:13.122Z,23.33
2022-10-15T08:50:17.409Z,23.36
2022-10-15T08:52:21.682Z,23.4
2022-10-15T08:54:25.984Z,23.42
2022-10-15T08:56:30.285Z,23.45
2022-10-15T08:58:36.899Z,23.46
2022-10-15T09:00:44.061Z,23.48
2022-10-15T09:02:48.358Z,23.5
2022-10-15T09:04:52.816Z,23.51
2022-10-15T09:06:57.123Z,23.53
2022-10-15T09:09:01.390Z,23.55
2022-10-15T09:11:05.868Z,23.56
2022-10-15T09:13:12.553Z,23.58
2022-10-15T09:15:21.617Z,23.6
2022-10-15T09:17:31.354Z,23.61
2022-10-15T09:19:35.645Z,23.61
2022-10-15T09:21:39.948Z,23.59
2022-10-15T09:23:44.244Z,23.57
2022-10-15T09:25:48.531Z,23.56
2022-10-15T09:27:52.785Z,23.57
2022-10-15T09:29:57.050Z,23.55
2022-10-15T09:32:01.369Z,23.55
2022-10-15T09:34:05.665Z,23.53
2022-10-15T09:36:09.990Z,23.52
2022-10-15T09:38:14.250Z,23.52
2022-10-15T09:40:18.586Z,23.52
2022-10-15T09:42:23.327Z,23.52
2022-10-15T09:44:28.968Z,23.53
2022-10-15T09:46:33.250Z,23.5
2022-10-15T09:48:37.556Z,23.49
2022-10-15T09:50:41.834Z,23.49
2022-10-15T09:52:46.157Z,23.47
2022-10-15T09:54:50.436Z,23.46
2022-10-15T09:56:54.712Z,23.49
2022-10-15T09:58:59.030Z,23.5
2022-10-15T10:01:05.063Z,23.49
2022-10-15T10:03:09.367Z,23.48
2022-10-15T10:05:13.670Z,23.48
2022-10-15T10:07:17.970Z,23.5
2022-10-15T10:09:22.259Z,23.53
2022-10-15T10:11:26.550Z,23.51
2022-10-15T10:13:30.822Z,23.53
2022-10-15T10:15:35.129Z,23.56
2022-10-15T10:17:39.479Z,23.58
2022-10-15T10:19:44.011Z,23.62
2022-10-15T10:21:48.299Z,23.64
2022-10-15T10:23:52.565Z,23.66
2022-10-15T10:25:56.845Z,23.69
2022-10-15T10:28:01.173Z,23.72
2022-10-15T10:30:05.461Z,23.75
2022-10-15T10:32:09.705Z,23.76
2022-10-15T10:34:14.001Z,23.79
2022-10-15T10:36:18.270Z,23.81
2022-10-15T10:38:22.566Z,23.82
2022-10-15T10:40:26.912Z,23.84
2022-10-15T10:42:31.213Z,23.86
2022-10-15T10:44:35.495Z,23.88
2022-10-15T10:46:39.757Z,23.89
2022-10-15T10:48:44.081Z,23.9
2022-10-15T10:50:48.362Z,23.89
2022-10-15T10:52:52.656Z,23.88
2022-10-15T10:54:56.962Z,23.88
2022-10-15T10:57:01.226Z,23.87
2022-10-15T10:59:05.541Z,23.86
2022-10-15T11:01:09.993Z,23.86
2022-10-15T11:03:14.425Z,23.85
2022-10-15T11:05:18.664Z,23.87
2022-10-15T11:07:23.063Z,23.89
2022-10-15T11:09:28.351Z,23.91
2022-10-15T11:11:32.679Z,23.93
2022-10-15T11:13:36.964Z,23.93
2022-10-15T11:15:41.222Z,23.91
2022-10-15T11:17:45.505Z,23.91
2022-10-15T11:20:06.152Z,23.9
2022-10-15T11:22:55.577Z,23.89
2022-10-15T11:25:06.564Z,23.9
2022-10-15T11:27:11.809Z,23.92
2022-10-15T11:29:16.291Z,23.9
2022-10-15T11:31:20.591Z,23.9
2022-10-15T11:33:25.949Z,23.89
2022-10-15T11:35:48.438Z,23.88
2022-10-15T11:37:57.870Z,23.88
2022-10-15T11:40:02.130Z,23.86
2022-10-15T11:42:06.418Z,23.87
2022-10-15T11:44:10.693Z,23.87
2022-10-15T11:46:15.011Z,23.87
2022-10-15T11:48:19.304Z,23.87
2022-10-15T11:50:23.579Z,23.88
2022-10-15T11:52:27.876Z,23.88
2022-10-15T11:54:32.152Z,23.89
2022-10-15T11:56:38.040Z,23.91
2022-10-15T11:58:43.279Z,23.93
2022-10-15T12:00:47.699Z,23.95
2022-10-15T12:02:51.979Z,23.98
2022-10-15T12:04:56.362Z,24
2022-10-15T12:07:00.647Z,24.02
2022-10-15T12:09:05.017Z,24.04
2022-10-15T12:11:09.292Z,24.05
2022-10-15T12:13:13.581Z,24.06
2022-10-15T12:15:17.878Z,24.08
2022-10-15T12:17:22.159Z,24.11
2022-10-15T12:19:26.528Z,24.13
2022-10-15T12:21:30.796Z,24.15
2022-10-15T12:23:35.072Z,24.16
2022-10-15T12:25:39.378Z,24.16
2022-10-15T12:27:43.675Z,24.18
2022-10-15T12:29:47.964Z,24.19
2022-10-15T12:31:52.249Z,24.19
2022-10-15T12:33:56.549Z,24.22
2022-10-15T12:36:00.985Z,24.22
2022-10-15T12:38:05.234Z,24.23
2022-10-15T12:40:09.511Z,24.23
2022-10-15T12:42:13.811Z,24.25
2022-10-15T12:44:18.195Z,24.25
2022-10-15T12:46:22.735Z,24.26
2022-10-15T12:48:26.992Z,24.27
2022-10-15T12:50:31.295Z,24.29
2022-10-15T12:52:35.556Z,24.31
2022-10-15T12:54:39.834Z,24.3
2022-10-15T12:56:44.137Z,24.31
2022-10-15T12:58:48.405Z,24.31
2022-10-15T13:00:52.746Z,24.31
2022-10-15T13:02:57.260Z,24.33
2022-10-15T13:05:01.565Z,24.35
2022-10-15T13:07:05.832Z,24.36
2022-10-15T13:09:10.276Z,24.37
2022-10-15T13:11:14.593Z,24.37
2022-10-15T13:13:18.878Z,24.38
2022-10-15T13:15:23.187Z,24.37
2022-10-15T13:17:27.500Z,24.35
2022-10-15T13:19:31.782Z,24.35
2022-10-15T13:21:36.125Z,24.33
2022-10-15T13:23:40.467Z,24.32
2022-10-15T13:25:44.726Z,24.3
2022-10-15T13:27:49.029Z,24.29
2022-10-15T13:29:53.292Z,24.28
2022-10-15T13:31:57.606Z,24.28
2022-10-15T13:34:01.885Z,24.3
2022-10-15T13:36:06.146Z,24.31
2022-10-15T13:38:11.129Z,24.32
2022-10-15T13:40:15.463Z,24.33
2022-10-15T13:42:19.711Z,24.33
2022-10-15T13:44:24.572Z,24.34
2022-10-15T13:46:28.902Z,24.34
2022-10-15T13:48:33.211Z,24.33
2022-10-15T13:50:37.759Z,24.32
2022-10-15T13:52:42.023Z,24.32
2022-10-15T13:54:46.309Z,24.32
2022-10-15T13:56:50.620Z,24.33
2022-10-15T13:58:54.909Z,24.36
2022-10-15T14:00:59.319Z,24.36
2022-10-15T14:03:03.819Z,24.39
2022-10-15T14:05:08.102Z,24.41
2022-10-15T14:07:12.450Z,24.42
2022-10-15T14:09:16.694Z,24.45
2022-10-15T14:11:20.987Z,24.47
2022-10-15T14:13:25.306Z,24.48
2022-10-15T14:15:29.583Z,24.47
2022-10-15T14:17:33.846Z,24.49
2022-10-15T14:19:38.120Z,24.49
2022-10-15T14:21:42.454Z,24.49
2022-10-15T14:23:46.822Z,24.5
2022-10-15T14:25:51.160Z,24.51
2022-10-15T14:27:55.471Z,24.52
2022-10-15T14:29:59.760Z,24.54
2022-10-15T14:32:04.069Z,24.55
2022-10-15T14:34:08.398Z,24.56
2022-10-15T14:36:12.880Z,24.56
2022-10-15T14:38:17.228Z,24.55
2022-10-15T14:40:21.494Z,24.53
2022-10-15T14:42:25.803Z,24.53
2022-10-15T14:44:30.095Z,24.54
2022-10-15T14:46:34.376Z,24.55
2022-10-15T14:48:38.682Z,24.57
2022-10-15T14:50:42.985Z,24.58
2022-10-15T14:52:47.271Z,24.58
2022-10-15T14:54:51.559Z,24.58
2022-10-15T14:56:55.844Z,24.58
2022-10-15T14:59:00.159Z,24.59
2022-10-15T15:01:04.525Z,24.6
2022-10-15T15:03:08.885Z,24.59
2022-10-15T15:05:13.398Z,24.59
2022-10-15T15:07:17.711Z,24.58
2022-10-15T15:09:22.001Z,24.6
2022-10-15T15:11:26.316Z,24.6
2022-10-15T15:13:30.755Z,24.61
2022-10-15T15:15:35.039Z,24.62
2022-10-15T15:17:39.349Z,24.63
2022-10-15T15:19:43.972Z,24.64
2022-10-15T15:21:48.386Z,24.67
2022-10-15T15:23:52.695Z,24.69
2022-10-15T15:25:57.012Z,24.69
2022-10-15T15:28:01.278Z,24.71
2022-10-15T15:30:05.589Z,24.71
2022-10-15T15:32:09.943Z,24.73
2022-10-15T15:34:14.247Z,24.73
2022-10-15T15:36:20.551Z,24.72
2022-10-15T15:38:27.282Z,24.7
2022-10-15T15:40:31.769Z,24.71
2022-10-15T15:42:36.039Z,24.7
2022-10-15T15:44:40.326Z,24.68
2022-10-15T15:46:44.613Z,24.67
2022-10-15T15:48:48.938Z,24.64
2022-10-15T15:50:53.232Z,24.62
2022-10-15T15:52:57.542Z,24.6
2022-10-15T15:55:01.858Z,24.58
2022-10-15T15:57:06.159Z,24.56
2022-10-15T15:59:10.517Z,24.55
2022-10-15T16:01:14.814Z,24.53
2022-10-15T16:03:19.328Z,24.52
2022-10-15T16:05:23.748Z,24.53
2022-10-15T16:07:28.499Z,24.53
2022-10-15T16:09:33.974Z,24.52
2022-10-15T16:11:38.337Z,24.52
2022-10-15T16:13:42.622Z,24.51
2022-10-15T16:15:46.993Z,24.52
2022-10-15T16:17:51.318Z,24.52
2022-10-15T16:19:55.600Z,24.5
2022-10-15T16:21:59.957Z,24.5
2022-10-15T16:24:04.273Z,24.5
2022-10-15T16:26:08.587Z,24.52
2022-10-15T16:28:12.882Z,24.5
2022-10-15T16:30:17.166Z,24.5
2022-10-15T16:32:21.466Z,24.49
2022-10-15T16:34:25.722Z,24.48
2022-10-15T16:36:30.056Z,24.47
2022-10-15T16:38:34.356Z,24.46
2022-10-15T16:40:38.601Z,24.46
2022-10-15T16:42:42.874Z,24.46
2022-10-15T16:44:47.167Z,24.47
2022-10-15T16:46:51.432Z,24.48
2022-10-15T16:48:55.707Z,24.51
2022-10-15T16:51:00.012Z,24.54
2022-10-15T16:53:04.339Z,24.57
2022-10-15T16:55:08.589Z,24.61
2022-10-15T16:57:12.876Z,24.63
2022-10-15T16:59:17.194Z,24.64
2022-10-15T17:01:21.497Z,24.67
2022-10-15T17:03:26.020Z,24.67
2022-10-15T17:05:30.269Z,24.69
2022-10-15T17:07:34.550Z,24.69
2022-10-15T17:09:38.832Z,24.71
2022-10-15T17:11:43.405Z,24.73
2022-10-15T17:13:47.721Z,24.74
2022-10-15T17:15:51.983Z,24.74
2022-10-15T17:18:00.351Z,24.73
2022-10-15T17:20:04.654Z,24.71
2022-10-15T17:22:08.984Z,24.69
2022-10-15T17:24:13.275Z,24.69
2022-10-15T17:26:17.523Z,24.68
2022-10-15T17:28:21.792Z,24.66
2022-10-15T17:30:26.131Z,24.64
2022-10-15T17:32:30.414Z,24.63
2022-10-15T17:34:34.714Z,24.64
2022-10-15T17:36:39.122Z,24.65
2022-10-15T17:38:43.493Z,24.65
2022-10-15T17:40:48.143Z,24.67
2022-10-15T17:42:52.417Z,24.7
2022-10-15T17:44:56.661Z,24.7
2022-10-15T17:47:00.934Z,24.7
2022-10-15T17:49:05.239Z,24.71
2022-10-15T17:51:09.552Z,24.7
2022-10-15T17:53:13.863Z,24.69
2022-10-15T17:55:18.227Z,24.66
2022-10-15T17:57:22.793Z,24.61
2022-10-15T17:59:28.019Z,24.59
2022-10-15T18:01:53.116Z,24.55
2022-10-15T18:04:03.529Z,24.22
2022-10-15T18:06:07.882Z,23.97
2022-10-15T18:08:12.192Z,23.76
2022-10-15T18:10:16.486Z,23.6
2022-10-15T18:12:20.773Z,23.46
2022-10-15T18:14:25.067Z,23.35
2022-10-15T18:16:29.473Z,23.24
2022-10-15T18:18:33.744Z,23.11
2022-10-15T18:20:38.067Z,23.05
2022-10-15T18:22:42.365Z,22.98
2022-10-15T18:24:46.670Z,22.94
2022-10-15T18:26:50.967Z,22.89
2022-10-15T18:28:55.368Z,22.83
2022-10-15T18:30:59.963Z,22.83
2022-10-15T18:33:04.260Z,22.88
2022-10-15T18:35:08.558Z,22.78
2022-10-15T18:37:12.859Z,22.73
2022-10-15T18:39:17.149Z,22.67
2022-10-15T18:41:21.441Z,22.63
2022-10-15T18:43:25.788Z,22.62
2022-10-15T18:45:30.442Z,22.56
2022-10-15T18:47:34.748Z,22.53
2022-10-15T18:49:39.051Z,22.53
2022-10-15T18:51:43.366Z,22.46
2022-10-15T18:53:47.702Z,22.38
2022-10-15T18:55:52.012Z,22.35
2022-10-15T18:57:56.283Z,22.33
2022-10-15T19:00:00.535Z,22.31
2022-10-15T19:02:04.869Z,22.27
2022-10-15T19:04:09.426Z,22.19
2022-10-15T19:06:13.694Z,22.3
2022-10-15T19:08:20.606Z,22.42
2022-10-15T19:10:25.775Z,22.48
2022-10-15T19:12:30.033Z,22.51
2022-10-15T19:14:34.292Z,22.58
2022-10-15T19:16:38.600Z,22.63
2022-10-15T19:18:42.918Z,22.64
2022-10-15T19:20:47.153Z,22.67
2022-10-15T19:22:51.355Z,22.69
2022-10-15T19:24:55.595Z,22.72
2022-10-15T19:26:59.890Z,22.77
2022-10-15T19:29:04.313Z,22.79
2022-10-15T19:31:08.653Z,22.76
2022-10-15T19:33:12.955Z,22.85
2022-10-15T19:35:17.243Z,22.97
2022-10-15T19:37:21.533Z,23.09
2022-10-15T19:39:26.740Z,23.21
2022-10-15T19:41:31.232Z,23.32
2022-10-15T19:43:35.515Z,23.43
2022-10-15T19:45:39.805Z,23.53
2022-10-15T19:47:44.101Z,23.61
2022-10-15T19:49:48.416Z,23.68
2022-10-15T19:51:52.760Z,23.74
2022-10-15T19:53:57.093Z,23.8
2022-10-15T19:56:01.454Z,23.87
2022-10-15T19:58:05.857Z,23.92
2022-10-15T20:00:10.244Z,23.97
2022-10-15T20:02:14.678Z,24.02
2022-10-15T20:04:19.081Z,24.05
2022-10-15T20:06:23.467Z,24.09
2022-10-15T20:08:27.909Z,24.13
2022-10-15T20:10:32.411Z,24.15
2022-10-15T20:12:36.865Z,24.16
2022-10-15T20:14:41.369Z,24.17
2022-10-15T20:16:45.717Z,24.18
2022-10-15T20:18:50.137Z,24.19
2022-10-15T20:20:54.465Z,24.2
2022-10-15T20:22:58.819Z,24.21
2022-10-15T20:25:03.188Z,24.22
2022-10-15T20:27:07.564Z,24.23
2022-10-15T20:29:12.271Z,24.24
2022-10-15T20:31:16.632Z,24.25
2022-10-15T20:33:20.991Z,24.26
2022-10-15T20:35:25.375Z,24.27
2022-10-15T20:37:29.718Z,24.28
2022-10-15T20:39:34.038Z,24.28
2022-10-15T20:41:38.357Z,24.28
2022-10-15T20:43:42.711Z,24.29
2022-10-15T20:45:47.006Z,24.29
2022-10-15T20:47:51.355Z,24.3
2022-10-15T20:49:55.700Z,24.32
2022-10-15T20:52:00.027Z,24.33
2022-10-15T20:54:04.404Z,24.34
2022-10-15T20:56:08.740Z,24.34
2022-10-15T20:58:13.101Z,24.35
2022-10-15T21:00:18.466Z,24.36
2022-10-15T21:02:23.000Z,24.36
2022-10-15T21:04:28.485Z,24.36
2022-10-15T21:06:32.978Z,24.37
2022-10-15T21:08:37.358Z,24.36
2022-10-15T21:10:41.714Z,24.37
2022-10-15T21:12:46.059Z,24.36
2022-10-15T21:14:50.427Z,24.38
2022-10-15T21:16:54.751Z,24.39
2022-10-15T21:18:59.111Z,24.38
2022-10-15T21:21:03.478Z,24.38
2022-10-15T21:23:07.867Z,24.4
2022-10-15T21:25:12.179Z,24.4
2022-10-15T21:27:16.505Z,24.41
2022-10-15T21:29:20.839Z,24.4
2022-10-15T21:31:25.203Z,24.39
2022-10-15T21:33:29.538Z,24.4
2022-10-15T21:35:33.860Z,24.4
2022-10-15T21:37:38.296Z,24.4
2022-10-15T21:39:42.652Z,24.4
2022-10-15T21:41:47.001Z,24.39
2022-10-15T21:43:51.424Z,24.34
2022-10-15T21:45:56.061Z,24.31
2022-10-15T21:48:00.414Z,24.26
2022-10-15T21:50:04.793Z,24.22
2022-10-15T21:52:09.143Z,24.19
2022-10-15T21:54:13.517Z,24.15
2022-10-15T21:56:17.835Z,24.1
2022-10-15T21:58:22.144Z,24.06
2022-10-15T22:00:26.507Z,24.03
2022-10-15T22:02:30.835Z,24
2022-10-15T22:04:35.180Z,23.95
2022-10-15T22:06:39.510Z,23.92
2022-10-15T22:08:43.896Z,23.9
2022-10-15T22:10:48.269Z,23.87
2022-10-15T22:12:52.630Z,23.84
2022-10-15T22:14:56.970Z,23.81
2022-10-15T22:17:01.291Z,23.78
2022-10-15T22:19:05.633Z,23.76
2022-10-15T22:21:09.986Z,23.73
2022-10-15T22:23:14.416Z,23.7
2022-10-15T22:25:18.726Z,23.67
2022-10-15T22:27:23.035Z,23.66
2022-10-15T22:29:29.531Z,23.66
2022-10-15T22:31:38.778Z,23.65
2022-10-15T22:33:43.124Z,23.64
2022-10-15T22:35:47.467Z,23.63
2022-10-15T22:37:51.779Z,23.62
2022-10-15T22:39:56.194Z,23.61
2022-10-15T22:42:00.514Z,23.6
2022-10-15T22:44:04.822Z,23.58
2022-10-15T22:46:09.162Z,23.57
2022-10-15T22:48:13.647Z,23.56
2022-10-15T22:50:17.984Z,23.56
2022-10-15T22:52:22.474Z,23.55
2022-10-15T22:54:27.915Z,23.56
2022-10-15T22:56:32.263Z,23.57
2022-10-15T22:58:36.567Z,23.56
2022-10-15T23:00:40.968Z,23.56
2022-10-15T23:02:45.385Z,23.55
2022-10-15T23:04:49.744Z,23.55
2022-10-15T23:06:54.138Z,23.56
2022-10-15T23:08:58.466Z,23.57
2022-10-15T23:11:04.624Z,23.58
2022-10-15T23:13:13.104Z,23.58
2022-10-15T23:15:17.444Z,23.55
2022-10-15T23:19:27.119Z,23.53
2022-10-15T23:21:31.425Z,23.53
2022-10-15T23:23:35.757Z,23.53
2022-10-15T23:25:40.078Z,23.54
2022-10-15T23:27:44.437Z,23.52
2022-10-15T23:29:53.401Z,23.51
2022-10-15T23:32:27.737Z,23.51
2022-10-15T23:34:32.043Z,23.5
2022-10-15T23:36:36.391Z,23.52
2022-10-15T23:38:40.727Z,23.53
2022-10-15T23:40:45.110Z,23.53
2022-10-15T23:42:49.428Z,23.51
2022-10-15T23:44:53.752Z,23.51
2022-10-15T23:46:58.081Z,23.5
2022-10-15T23:49:02.412Z,23.5
2022-10-15T23:51:06.736Z,23.48
2022-10-15T23:53:11.097Z,23.47
2022-10-15T23:55:15.387Z,23.46
2022-10-15T23:57:19.729Z,23.44
2022-10-15T23:59:24.037Z,23.42
